Ottumwa Regional Airport
KOTM : now visible

Airfield :











YOU CAN JOIN US ON...

 
LOGIN :

Register | Disclaimer

   EN    FR    IT 

 









Legend :    VFR   Marginal VFR   IFR   Intensive IFR   Very Intensive IFR
Visi :
Ceiling :
>= 8 km
>= 3000ft
5 to 8 km
1000 to 3000 ft
1500m to 5 km
500 to 1000 ft
800 to 1500m
200 to 500 ft
< 800m
< 200 ft
Symbols :   Thunderstorms  Fog  Heavy snow  Heavy precipitations  Wind > 20 kt






- Airport Elevation : 845 ft
- IATA code : OTM


KOTM - Ottumwa Regional

CURRENT METAR :
  • 180013Z AUTO 13019G24KT 6SM -FZRA BR SCT007 BKN012 OVC028 M03/M04 A3008 RMK AO2 UPE2359FZRAB2359 P0000 I1001 T10331044

EXPIRED METARs :
  • 180005Z AUTO 13016KT 4SM -FZRA BR SCT008 BKN026 OVC031 M03/M04 A3008 RMK AO2 UPE2359FZRAB2359 P0000 I1000 T10331044
  • 172338Z AUTO 13017KT 3SM UP BR FEW008 BKN047 OVC060 M04/M05 A3009 RMK AO2 PK WND 13026/2302 UPB12SNE12 P0000 I1001 T10391050
  • 172326Z AUTO 13018G24KT 3SM UP BR FEW009 BKN024 OVC046 M04/M05 A3009 RMK AO2 PK WND 13026/2302 UPB12SNE12 PRESFR P0000 I1000 T10391050
  • 172253Z AUTO 13018G26KT 1SM -SN BR SCT009 OVC023 M04/M06 A3012 RMK AO2 PK WND 12029/2202 UPE00FZRAB00E42SNB42 SLP215 P0000 I1001 T10391056
  • 172249Z AUTO 12020G28KT 1 1/4SM -SN BR SCT009 BKN023 OVC030 M04/M06 A3013 RMK AO2 PK WND 12029/2202 UPE00FZRAB00E42SNB42 P0000 I1001
  • 172242Z AUTO 13019G28KT 1 3/4SM -SN BR BKN010 BKN014 OVC022 M04/M06 A3013 RMK AO2 PK WND 12029/2202 UPE00FZRAB00E42SNB42 CIG 007V012 P0000 I1001 T10391056
  • 172210Z AUTO 13020G29KT 4SM -FZRA BR BKN010 OVC031 M04/M06 A3016 RMK AO2 PK WND 12029/2202 UPE00FZRAB00 P0000 I1000 T10391056
  • 172200Z AUTO 12020G28KT 4SM -FZRA BR SCT008 SCT014 OVC031 M04/M06 A3017 RMK AO2 PK WND 12028/2156 UPE00FZRAB00 P0000 I1000 T10391056
  • 172140Z AUTO 12020G27KT 3/4SM -SN BR FEW008 BKN018 OVC029 M04/M06 A3018 RMK AO2 PK WND 12028/2130 P0000 T10441056

TAF KOTM
Valid from the 18 at 00:00 until the 19 at 00:00 UTC


172332Z 1800/1824 12020G28KT 3SM -FZDZ BR SCT009 BKN024 OVC030
FM180800 18015KT 5SM BR OVC009
FM181200 24014G25KT 3SM -SN BR OVC012
FM181600 29025G35KT P6SM SCT015



MET'MAP, your aeronautical weather chart ! - Copyright ORBIFLY December 2007 - Disclaimer

ORBIFLY MET'MAP TEAM :

Programming & Development : Alexandra Zaïnal
Concept & original design : Baudouin d'Aumeries
Assistance for programming : Marc-Olivier Méhu
Technical & hardware support : Manuel Goepfert

Contact : metmap@orbifly.com




SOURCES & CREDITS :

   NOAA       Earth
Advisory